Time;durP1;ratioP1;P1;durP2;ratioP2;P2;SDS_P1;SDS_P2;PMS_P1;PMS_P2;Temp;Humidity;BMP_temperature;BMP_pressure;BME280_temperature;BME280_humidity;BME280_pressure;Samples;Min_cycle;Max_cycle;Signal;HPM_P1;HPM_P2
2024/01/18 00:00:47;;;;;;;;;;;;;;;;;;2210398;66;1915;-20
2024/01/18 00:03:18;;;;;;;;;;;;;;;;;;2211683;66;1851;-21
2024/01/18 00:05:48;;;;;;;;;;;;;;;;;;2210516;59;1854;-23
2024/01/18 00:08:19;;;;;;;;;;;;;;;;;;2211082;64;2179;-20
2024/01/18 00:10:49;;;;;;;;;;;;;;;;;;2209771;59;1782;-23
2024/01/18 00:13:19;;;;;;;;;;;;;;;;;;2211768;59;2787;-20
2024/01/18 00:15:50;;;;;;;;;;;;;;;;;;2211119;59;2189;-22
2024/01/18 00:18:20;;;;;;;;;;;;;;;;;;2211574;66;2161;-22
2024/01/18 00:20:50;;;;;;;;;;;;;;;;;;2209438;59;2410;-20
2024/01/18 00:23:20;;;;;;;;;;;;;;;;;;2211385;66;1798;-22
2024/01/18 00:25:51;;;;;;;;;;;;;;;;;;2209788;66;1820;-20
2024/01/18 00:28:21;;;;;;;;;;;;;;;;;;2210432;59;2392;-19
2024/01/18 00:30:52;;;;;;;;;;;;;;;;;;2207770;66;1835;-22
2024/01/18 00:33:22;;;;;;;;;;;;;;;;;;2210794;66;1986;-22
2024/01/18 00:35:52;;;;;;;;;;;;;;;;;;2208787;66;2133;-23
2024/01/18 00:38:23;;;;;;;;;;;;;;;;;;2213116;66;1894;-20
2024/01/18 00:40:53;;;;;;;;;;;;;;;;;;2209171;66;2018;-20
2024/01/18 00:43:23;;;;;;;;;;;;;;;;;;2210754;66;2636;-20
2024/01/18 00:45:54;;;;;;;;;;;;;;;;;;2209792;66;2039;-22
2024/01/18 00:48:24;;;;;;;;;;;;;;;;;;2210133;59;1836;-20
2024/01/18 00:50:56;;;;;;;;;;;;;;;;;;2209529;59;2554;-19
2024/01/18 00:53:29;;;;;;;;;;;;;;;;;;2210897;59;1944;-22
2024/01/18 00:56:00;;;;;;;;;;;;;;;;;;2209716;66;1787;-19
2024/01/18 00:58:30;;;;;;;;;;;;;;;;;;2210871;66;1691;-20
2024/01/18 01:01:00;;;;;;;;;;;;;;;;;;2210402;59;2236;-20
2024/01/18 01:03:31;;;;;;;;;;;;;;;;;;2210503;59;2553;-20
2024/01/18 01:06:01;;;;;;;;;;;;;;;;;;2208761;58;2012;-22
2024/01/18 01:08:33;;;;;;;;;;;;;;;;;;2210769;58;2109;-22
2024/01/18 01:11:08;;;;;;;;;;;;;;;;;;2207393;59;2002;-21
2024/01/18 01:13:40;;;;;;;;;;;;;;;;;;2210962;66;1895;-22
2024/01/18 01:16:12;;;;;;;;;;;;;;;;;;2208326;59;2076;-19
2024/01/18 01:18:46;;;;;;;;;;;;;;;;;;2206229;59;2291;-19
2024/01/18 01:21:19;;;;;;;;;;;;;;;;;;2209582;59;2484;-19
2024/01/18 01:23:51;;;;;;;;;;;;;;;;;;2209611;58;2374;-20
2024/01/18 01:26:23;;;;;;;;;;;;;;;;;;2211236;66;2266;-22
2024/01/18 01:28:53;;;;;;;;;;;;;;;;;;2210670;59;2522;-22
2024/01/18 01:31:24;;;;;;;;;;;;;;;;;;2210240;66;2013;-22
2024/01/18 01:33:54;;;;;;;;;;;;;;;;;;2209212;58;1824;-22
2024/01/18 01:36:25;;;;;;;;;;;;;;;;;;2210087;59;2973;-22
2024/01/18 01:38:56;;;;;;;;;;;;;;;;;;2210541;58;2539;-22
2024/01/18 01:41:27;;;;;;;;;;;;;;;;;;2210068;59;1772;-22
2024/01/18 01:43:58;;;;;;;;;;;;;;;;;;2206743;66;1937;-22
2024/01/18 01:46:29;;;;;;;;;;;;;;;;;;2208135;59;1730;-20
2024/01/18 01:49:01;;;;;;;;;;;;;;;;;;2210566;59;1862;-22
2024/01/18 01:51:39;;;;;;;;;;;;;;;;;;2212239;59;2064;-21
2024/01/18 01:54:10;;;;;;;;;;;;;;;;;;2210722;59;2464;-19
2024/01/18 01:56:42;;;;;;;;;;;;;;;;;;2211751;66;3107;-22
2024/01/18 01:59:14;;;;;;;;;;;;;;;;;;2210812;59;2161;-20
2024/01/18 02:01:45;;;;;;;;;;;;;;;;;;2210137;66;2939;-20
2024/01/18 02:04:16;;;;;;;;;;;;;;;;;;2211612;59;1541;-22
2024/01/18 02:06:50;;;;;;;;;;;;;;;;;;2211046;59;1989;-22
2024/01/18 02:09:21;;;;;;;;;;;;;;;;;;2210610;59;2488;-20
2024/01/18 02:11:52;;;;;;;;;;;;;;;;;;2211140;59;1919;-22
2024/01/18 02:14:23;;;;;;;;;;;;;;;;;;2211617;66;2427;-19
2024/01/18 02:16:53;;;;;;;;;;;;;;;;;;2210843;59;2549;-20
2024/01/18 02:19:23;;;;;;;;;;;;;;;;;;2211037;66;1831;-22
2024/01/18 02:21:54;;;;;;;;;;;;;;;;;;2211582;58;2018;-21
2024/01/18 02:24:43;;;;;;;;;;;;;;;;;;2211086;59;1638;-20
2024/01/18 02:27:13;;;;;;;;;;;;;;;;;;2210918;59;2102;-20
2024/01/18 02:29:44;;;;;;;;;;;;;;;;;;2210507;59;2007;-20
2024/01/18 02:32:14;;;;;;;;;;;;;;;;;;2210861;59;2000;-22
2024/01/18 02:34:44;;;;;;;;;;;;;;;;;;2211401;66;1469;-20
2024/01/18 02:37:15;;;;;;;;;;;;;;;;;;2210357;66;2098;-20
2024/01/18 02:39:45;;;;;;;;;;;;;;;;;;2209915;59;2005;-20
2024/01/18 02:42:16;;;;;;;;;;;;;;;;;;2210860;66;2380;-20
2024/01/18 02:44:47;;;;;;;;;;;;;;;;;;2210672;59;2118;-20
2024/01/18 02:47:17;;;;;;;;;;;;;;;;;;2211510;59;1752;-22
2024/01/18 02:49:47;;;;;;;;;;;;;;;;;;2209712;59;2218;-20
2024/01/18 02:52:18;;;;;;;;;;;;;;;;;;2213968;59;2308;-21
2024/01/18 02:54:48;;;;;;;;;;;;;;;;;;2211037;59;1859;-19
2024/01/18 02:57:19;;;;;;;;;;;;;;;;;;2211951;66;2522;-20
2024/01/18 02:59:49;;;;;;;;;;;;;;;;;;2211049;66;2467;-20
2024/01/18 03:02:19;;;;;;;;;;;;;;;;;;2211647;59;2280;-22
2024/01/18 03:04:50;;;;;;;;;;;;;;;;;;2210493;66;1817;-20
2024/01/18 03:07:20;;;;;;;;;;;;;;;;;;2211295;59;1760;-20
2024/01/18 03:09:50;;;;;;;;;;;;;;;;;;2210169;59;2549;-19
2024/01/18 03:12:20;;;;;;;;;;;;;;;;;;2211090;66;2069;-20
2024/01/18 03:14:51;;;;;;;;;;;;;;;;;;2209826;66;2331;-21
2024/01/18 03:17:21;;;;;;;;;;;;;;;;;;2211015;59;1752;-19
2024/01/18 03:19:52;;;;;;;;;;;;;;;;;;2210162;59;2069;-20
2024/01/18 03:22:22;;;;;;;;;;;;;;;;;;2209871;59;2131;-21
2024/01/18 03:24:53;;;;;;;;;;;;;;;;;;2209367;58;1843;-21
2024/01/18 03:27:23;;;;;;;;;;;;;;;;;;2209782;58;2865;-21
2024/01/18 03:29:54;;;;;;;;;;;;;;;;;;2205320;59;3296;-21
2024/01/18 03:32:25;;;;;;;;;;;;;;;;;;2209159;58;1939;-21
2024/01/18 03:34:56;;;;;;;;;;;;;;;;;;2208776;66;2387;-21
2024/01/18 03:37:26;;;;;;;;;;;;;;;;;;2210365;66;1814;-21
2024/01/18 03:39:56;;;;;;;;;;;;;;;;;;2210036;66;2073;-21
2024/01/18 03:42:27;;;;;;;;;;;;;;;;;;2211375;59;1899;-19
2024/01/18 03:44:57;;;;;;;;;;;;;;;;;;2210392;66;2260;-21
2024/01/18 03:47:28;;;;;;;;;;;;;;;;;;2208914;58;2387;-21
2024/01/18 03:49:59;;;;;;;;;;;;;;;;;;2205071;58;2453;-21
2024/01/18 03:52:30;;;;;;;;;;;;;;;;;;2211189;59;2528;-19
2024/01/18 03:55:00;;;;;;;;;;;;;;;;;;2210179;59;2431;-21
2024/01/18 03:57:30;;;;;;;;;;;;;;;;;;2210496;59;2132;-19
2024/01/18 04:00:02;;;;;;;;;;;;;;;;;;2207446;58;2132;-19
2024/01/18 04:02:32;;;;;;;;;;;;;;;;;;2209356;59;1862;-21
2024/01/18 04:05:04;;;;;;;;;;;;;;;;;;2209979;59;3047;-21
2024/01/18 04:07:37;;;;;;;;;;;;;;;;;;2213499;58;2085;-19
2024/01/18 04:10:08;;;;;;;;;;;;;;;;;;2209636;59;1714;-19
2024/01/18 04:12:38;;;;;;;;;;;;;;;;;;2210686;66;2109;-21
2024/01/18 04:15:09;;;;;;;;;;;;;;;;;;2209980;66;1663;-21
2024/01/18 04:17:39;;;;;;;;;;;;;;;;;;2211083;66;1461;-19
2024/01/18 04:20:13;;;;;;;;;;;;;;;;;;2209672;59;1861;-19
2024/01/18 04:22:43;;;;;;;;;;;;;;;;;;2210649;67;1894;-19
2024/01/18 04:25:14;;;;;;;;;;;;;;;;;;2208472;66;2877;-19
2024/01/18 04:27:45;;;;;;;;;;;;;;;;;;2209762;59;2787;-20
2024/01/18 04:30:16;;;;;;;;;;;;;;;;;;2209525;59;2440;-19
2024/01/18 04:32:46;;;;;;;;;;;;;;;;;;2210093;58;2908;-21
2024/01/18 04:35:16;;;;;;;;;;;;;;;;;;2209626;59;1786;-21
2024/01/18 04:37:47;;;;;;;;;;;;;;;;;;2209772;66;1886;-19
2024/01/18 04:40:17;;;;;;;;;;;;;;;;;;2210941;53;3060;-19
2024/01/18 04:42:47;;;;;;;;;;;;;;;;;;2210060;66;1712;-19
2024/01/18 04:45:18;;;;;;;;;;;;;;;;;;2212287;59;1964;-19
2024/01/18 04:47:51;;;;;;;;;;;;;;;;;;2210566;66;1772;-19
2024/01/18 04:50:24;;;;;;;;;;;;;;;;;;2206524;59;1807;-21
2024/01/18 04:52:55;;;;;;;;;;;;;;;;;;2210795;66;2926;-21
2024/01/18 04:55:25;;;;;;;;;;;;;;;;;;2211896;59;2399;-19
2024/01/18 04:57:56;;;;;;;;;;;;;;;;;;2210830;66;2443;-19
2024/01/18 05:00:26;;;;;;;;;;;;;;;;;;2211284;66;1838;-19
2024/01/18 05:02:56;;;;;;;;;;;;;;;;;;2210810;59;1958;-21
2024/01/18 05:05:27;;;;;;;;;;;;;;;;;;2211475;59;1997;-19
2024/01/18 05:07:57;;;;;;;;;;;;;;;;;;2210390;59;1850;-19
2024/01/18 05:10:28;;;;;;;;;;;;;;;;;;2210379;59;1889;-19
2024/01/18 05:12:59;;;;;;;;;;;;;;;;;;2208954;59;2003;-21
2024/01/18 05:15:30;;;;;;;;;;;;;;;;;;2211643;59;2110;-21
2024/01/18 05:18:01;;;;;;;;;;;;;;;;;;2210310;66;2078;-21
2024/01/18 05:20:32;;;;;;;;;;;;;;;;;;2211315;66;2627;-19
2024/01/18 05:23:02;;;;;;;;;;;;;;;;;;2209826;59;2485;-21
2024/01/18 05:25:33;;;;;;;;;;;;;;;;;;2210296;66;1837;-21
2024/01/18 05:28:03;;;;;;;;;;;;;;;;;;2207473;58;2134;-19
2024/01/18 05:30:33;;;;;;;;;;;;;;;;;;2211208;59;2153;-20
2024/01/18 05:33:04;;;;;;;;;;;;;;;;;;2209075;59;1929;-19
2024/01/18 05:35:35;;;;;;;;;;;;;;;;;;2210152;59;1938;-21
2024/01/18 05:38:05;;;;;;;;;;;;;;;;;;2209195;59;2062;-19
2024/01/18 05:40:36;;;;;;;;;;;;;;;;;;2208722;59;1792;-20
2024/01/18 05:43:06;;;;;;;;;;;;;;;;;;2208676;59;1878;-19
2024/01/18 05:45:37;;;;;;;;;;;;;;;;;;2210534;66;1756;-19
2024/01/18 05:48:07;;;;;;;;;;;;;;;;;;2208928;58;1726;-19
2024/01/18 05:50:37;;;;;;;;;;;;;;;;;;2205250;67;1929;-19
2024/01/18 05:53:08;;;;;;;;;;;;;;;;;;2208785;59;2549;-19
2024/01/18 05:55:38;;;;;;;;;;;;;;;;;;2208868;59;1769;-19
2024/01/18 05:58:09;;;;;;;;;;;;;;;;;;2208678;59;2434;-21
2024/01/18 06:00:39;;;;;;;;;;;;;;;;;;2209958;58;1839;-21
2024/01/18 06:03:10;;;;;;;;;;;;;;;;;;2210163;59;2072;-21
2024/01/18 06:05:41;;;;;;;;;;;;;;;;;;2210460;59;2048;-21
2024/01/18 06:08:26;;;;;;;;;;;;;;;;;;2209391;59;2559;-19
2024/01/18 06:11:24;;;;;;;;;;;;;;;;;;2201842;59;2373;-20
2024/01/18 06:13:54;;;;;;;;;;;;;;;;;;2210139;59;2052;-21
2024/01/18 06:16:24;;;;;;;;;;;;;;;;;;2209239;59;2179;-21
2024/01/18 06:18:55;;;;;;;;;;;;;;;;;;2210245;59;1843;-21
2024/01/18 06:21:25;;;;;;;;;;;;;;;;;;2209007;66;2249;-21
2024/01/18 06:23:56;;;;;;;;;;;;;;;;;;2210610;59;1764;-21
2024/01/18 06:26:26;;;;;;;;;;;;;;;;;;2208301;66;2525;-21
2024/01/18 06:28:57;;;;;;;;;;;;;;;;;;2210063;58;2428;-21
2024/01/18 06:31:29;;;;;;;;;;;;;;;;;;2206513;59;2008;-21
2024/01/18 06:33:59;;;;;;;;;;;;;;;;;;2206705;67;2433;-21
2024/01/18 06:36:30;;;;;;;;;;;;;;;;;;2209510;59;2033;-21
2024/01/18 06:39:00;;;;;;;;;;;;;;;;;;2209708;59;2601;-21
2024/01/18 06:41:31;;;;;;;;;;;;;;;;;;2208810;59;1799;-21
2024/01/18 06:44:02;;;;;;;;;;;;;;;;;;2208737;66;1799;-21
2024/01/18 06:46:32;;;;;;;;;;;;;;;;;;2209781;59;2113;-19
2024/01/18 06:49:03;;;;;;;;;;;;;;;;;;2208912;58;1949;-19
2024/01/18 06:51:34;;;;;;;;;;;;;;;;;;2209666;59;1940;-20
2024/01/18 06:54:05;;;;;;;;;;;;;;;;;;2206321;59;2541;-21
2024/01/18 06:56:35;;;;;;;;;;;;;;;;;;2209841;59;1986;-21
2024/01/18 06:59:05;;;;;;;;;;;;;;;;;;2210216;59;2263;-19
2024/01/18 07:01:36;;;;;;;;;;;;;;;;;;2208190;67;2106;-19
2024/01/18 07:04:06;;;;;;;;;;;;;;;;;;2208342;59;2348;-19
2024/01/18 07:06:37;;;;;;;;;;;;;;;;;;2209740;59;1763;-19
2024/01/18 07:09:08;;;;;;;;;;;;;;;;;;2209189;59;2284;-22
2024/01/18 07:11:39;;;;;;;;;;;;;;;;;;2210392;59;2608;-21
2024/01/18 07:14:09;;;;;;;;;;;;;;;;;;2208553;66;2051;-20
2024/01/18 07:16:40;;;;;;;;;;;;;;;;;;2209802;59;1824;-21
2024/01/18 07:19:10;;;;;;;;;;;;;;;;;;2207771;59;2716;-20
2024/01/18 07:21:40;;;;;;;;;;;;;;;;;;2209787;59;2032;-22
2024/01/18 07:24:11;;;;;;;;;;;;;;;;;;2208915;59;1952;-22
2024/01/18 07:26:42;;;;;;;;;;;;;;;;;;2206501;59;2288;-20
2024/01/18 07:29:12;;;;;;;;;;;;;;;;;;2208711;58;2287;-22
2024/01/18 07:31:43;;;;;;;;;;;;;;;;;;2209479;59;2279;-22
2024/01/18 07:34:15;;;;;;;;;;;;;;;;;;2208756;59;1763;-22
2024/01/18 07:36:45;;;;;;;;;;;;;;;;;;2210950;66;2717;-23
2024/01/18 07:39:16;;;;;;;;;;;;;;;;;;2209264;59;2560;-23
2024/01/18 07:41:46;;;;;;;;;;;;;;;;;;2211224;66;2413;-23
2024/01/18 07:44:16;;;;;;;;;;;;;;;;;;2210606;60;2367;-23
2024/01/18 07:46:47;;;;;;;;;;;;;;;;;;2211892;59;2329;-22
2024/01/18 07:49:17;;;;;;;;;;;;;;;;;;2209601;58;2106;-21
2024/01/18 07:51:49;;;;;;;;;;;;;;;;;;2210733;66;1975;-23
2024/01/18 07:54:20;;;;;;;;;;;;;;;;;;2205892;66;2488;-20
2024/01/18 07:56:50;;;;;;;;;;;;;;;;;;2210602;66;2528;-20
2024/01/18 07:59:21;;;;;;;;;;;;;;;;;;2209194;66;1828;-24
2024/01/18 08:01:52;;;;;;;;;;;;;;;;;;2210556;66;1843;-21
2024/01/18 08:04:22;;;;;;;;;;;;;;;;;;2209236;59;2526;-23
2024/01/18 08:06:54;;;;;;;;;;;;;;;;;;2209755;59;2337;-21
2024/01/18 08:09:25;;;;;;;;;;;;;;;;;;2208213;59;2331;-21
2024/01/18 08:11:56;;;;;;;;;;;;;;;;;;2206400;59;3034;-23
2024/01/18 08:14:27;;;;;;;;;;;;;;;;;;2209892;53;2568;-21
2024/01/18 08:16:58;;;;;;;;;;;;;;;;;;2205561;59;1826;-20
2024/01/18 08:19:29;;;;;;;;;;;;;;;;;;2205965;59;1839;-20
2024/01/18 08:21:59;;;;;;;;;;;;;;;;;;2203957;59;1730;-23
2024/01/18 08:24:30;;;;;;;;;;;;;;;;;;2208896;59;1833;-23
2024/01/18 08:27:00;;;;;;;;;;;;;;;;;;2207647;59;2124;-23
2024/01/18 08:29:31;;;;;;;;;;;;;;;;;;2205991;59;1768;-22
2024/01/18 08:32:03;;;;;;;;;;;;;;;;;;2207228;59;1936;-22
2024/01/18 08:34:35;;;;;;;;;;;;;;;;;;2207409;59;2356;-21
2024/01/18 08:37:07;;;;;;;;;;;;;;;;;;2207789;67;1828;-20
2024/01/18 08:39:39;;;;;;;;;;;;;;;;;;2206994;59;1949;-20
2024/01/18 08:42:09;;;;;;;;;;;;;;;;;;2207168;59;1701;-20
2024/01/18 08:44:45;;;;;;;;;;;;;;;;;;2206308;67;2033;-23
2024/01/18 08:47:16;;;;;;;;;;;;;;;;;;2205798;59;2054;-23
2024/01/18 08:49:46;;;;;;;;;;;;;;;;;;2207302;59;2268;-23
2024/01/18 08:52:17;;;;;;;;;;;;;;;;;;2206118;59;2387;-23
2024/01/18 08:54:47;;;;;;;;;;;;;;;;;;2207928;59;1983;-23
2024/01/18 08:57:18;;;;;;;;;;;;;;;;;;2202808;67;2621;-23
2024/01/18 08:59:48;;;;;;;;;;;;;;;;;;2207423;59;1894;-22
2024/01/18 09:02:18;;;;;;;;;;;;;;;;;;2208648;53;3213;-22
2024/01/18 09:04:49;;;;;;;;;;;;;;;;;;2214385;58;1783;-20
2024/01/18 09:07:19;;;;;;;;;;;;;;;;;;2209533;59;2094;-20
2024/01/18 09:09:50;;;;;;;;;;;;;;;;;;2212873;58;1844;-20
2024/01/18 09:12:20;;;;;;;;;;;;;;;;;;2209158;59;1990;-20
2024/01/18 09:14:51;;;;;;;;;;;;;;;;;;2213212;66;2200;-20
2024/01/18 09:17:21;;;;;;;;;;;;;;;;;;2210953;53;3053;-22
2024/01/18 09:19:52;;;;;;;;;;;;;;;;;;2203250;67;2427;-20
2024/01/18 09:22:23;;;;;;;;;;;;;;;;;;2200029;59;1905;-21
2024/01/18 09:24:54;;;;;;;;;;;;;;;;;;2203441;59;2650;-22
2024/01/18 09:27:24;;;;;;;;;;;;;;;;;;2201943;59;2505;-22
2024/01/18 09:29:55;;;;;;;;;;;;;;;;;;2202389;59;2324;-22
2024/01/18 09:32:26;;;;;;;;;;;;;;;;;;2202415;59;2114;-22
2024/01/18 09:34:57;;;;;;;;;;;;;;;;;;2205511;67;1981;-22
2024/01/18 09:37:28;;;;;;;;;;;;;;;;;;2202966;59;2718;-22
2024/01/18 09:39:58;;;;;;;;;;;;;;;;;;2207175;59;1821;-22
2024/01/18 09:42:31;;;;;;;;;;;;;;;;;;2204769;59;2468;-22
2024/01/18 09:45:07;;;;;;;;;;;;;;;;;;2206276;59;1822;-23
2024/01/18 09:47:39;;;;;;;;;;;;;;;;;;2201688;59;1996;-22
2024/01/18 09:50:10;;;;;;;;;;;;;;;;;;2205977;59;2002;-22
2024/01/18 09:52:40;;;;;;;;;;;;;;;;;;2205486;67;1947;-21
2024/01/18 09:55:11;;;;;;;;;;;;;;;;;;2206315;67;1764;-22
2024/01/18 09:57:45;;;;;;;;;;;;;;;;;;2204682;59;1874;-22
2024/01/18 10:00:17;;;;;;;;;;;;;;;;;;2201657;59;2612;-22
2024/01/18 10:02:48;;;;;;;;;;;;;;;;;;2204927;67;1978;-22
2024/01/18 10:05:19;;;;;;;;;;;;;;;;;;2198140;59;2624;-22
2024/01/18 10:07:50;;;;;;;;;;;;;;;;;;2202594;59;2546;-20
2024/01/18 10:10:20;;;;;;;;;;;;;;;;;;2204850;59;2083;-22
2024/01/18 10:12:50;;;;;;;;;;;;;;;;;;2203941;59;2239;-22
2024/01/18 10:15:33;;;;;;;;;;;;;;;;;;2201290;59;1948;-22
2024/01/18 10:18:05;;;;;;;;;;;;;;;;;;2202936;59;2051;-23
2024/01/18 10:20:36;;;;;;;;;;;;;;;;;;2204136;59;2138;-24
2024/01/18 10:23:07;;;;;;;;;;;;;;;;;;2204315;59;2075;-23
2024/01/18 10:25:39;;;;;;;;;;;;;;;;;;2205933;59;2448;-23
2024/01/18 10:28:10;;;;;;;;;;;;;;;;;;2204920;59;2209;-22
2024/01/18 10:30:41;;;;;;;;;;;;;;;;;;2205649;59;1988;-22
2024/01/18 10:33:12;;;;;;;;;;;;;;;;;;2201641;67;1948;-20
2024/01/18 10:35:43;;;;;;;;;;;;;;;;;;2196073;59;1661;-21
2024/01/18 10:38:14;;;;;;;;;;;;;;;;;;2199595;59;1976;-21
2024/01/18 10:40:49;;;;;;;;;;;;;;;;;;2198437;59;2660;-21
2024/01/18 10:43:19;;;;;;;;;;;;;;;;;;2204838;59;1902;-21
2024/01/18 10:45:50;;;;;;;;;;;;;;;;;;2199643;67;4444;-20
2024/01/18 10:48:20;;;;;;;;;;;;;;;;;;2203332;59;2229;-21
2024/01/18 10:50:52;;;;;;;;;;;;;;;;;;2200266;59;1780;-20
2024/01/18 10:53:24;;;;;;;;;;;;;;;;;;2205658;59;2672;-21
2024/01/18 10:55:54;;;;;;;;;;;;;;;;;;2207294;59;2268;-21
2024/01/18 10:58:24;;;;;;;;;;;;;;;;;;2202828;67;2701;-21
2024/01/18 11:00:55;;;;;;;;;;;;;;;;;;2203213;59;1933;-21
2024/01/18 11:03:26;;;;;;;;;;;;;;;;;;2205653;67;2470;-20
2024/01/18 11:05:57;;;;;;;;;;;;;;;;;;2204358;59;2758;-21
2024/01/18 11:08:28;;;;;;;;;;;;;;;;;;2204933;59;2217;-20
2024/01/18 11:10:58;;;;;;;;;;;;;;;;;;2207098;67;1843;-20
2024/01/18 11:13:29;;;;;;;;;;;;;;;;;;2203861;67;2018;-20
2024/01/18 11:15:59;;;;;;;;;;;;;;;;;;2207528;59;1860;-21
2024/01/18 11:18:30;;;;;;;;;;;;;;;;;;2204740;59;2366;-21
2024/01/18 11:21:04;;;;;;;;;;;;;;;;;;2205115;67;2313;-20
2024/01/18 11:23:38;;;;;;;;;;;;;;;;;;2205698;59;2165;-20
2024/01/18 11:26:18;;;;;;;;;;;;;;;;;;2206246;59;1961;-21
2024/01/18 11:28:48;;;;;;;;;;;;;;;;;;2207042;59;2605;-22
2024/01/18 11:31:18;;;;;;;;;;;;;;;;;;2208873;59;2193;-22
2024/01/18 11:33:49;;;;;;;;;;;;;;;;;;2200008;59;1944;-22
2024/01/18 11:36:20;;;;;;;;;;;;;;;;;;2206560;59;1940;-22
2024/01/18 11:38:50;;;;;;;;;;;;;;;;;;2206929;59;2100;-22
2024/01/18 11:41:22;;;;;;;;;;;;;;;;;;2205193;59;2346;-22
2024/01/18 11:43:57;;;;;;;;;;;;;;;;;;2206562;67;2504;-22
2024/01/18 11:46:35;;;;;;;;;;;;;;;;;;2205720;59;1902;-22
2024/01/18 11:49:06;;;;;;;;;;;;;;;;;;2203176;59;2078;-21
2024/01/18 11:51:37;;;;;;;;;;;;;;;;;;2202317;59;1982;-21
2024/01/18 11:54:09;;;;;;;;;;;;;;;;;;2206724;67;1787;-20
2024/01/18 11:56:40;;;;;;;;;;;;;;;;;;2204874;67;1912;-21
2024/01/18 11:59:11;;;;;;;;;;;;;;;;;;2203410;67;1789;-21
2024/01/18 12:01:41;;;;;;;;;;;;;;;;;;2207287;67;2307;-20
2024/01/18 12:04:11;;;;;;;;;;;;;;;;;;2207955;59;1900;-20
2024/01/18 12:06:41;;;;;;;;;;;;;;;;;;2203970;59;1920;-20
2024/01/18 12:09:12;;;;;;;;;;;;;;;;;;2207972;67;2255;-20
2024/01/18 12:11:42;;;;;;;;;;;;;;;;;;2206885;67;2303;-20
2024/01/18 12:14:12;;;;;;;;;;;;;;;;;;2203698;67;2660;-20
2024/01/18 12:16:43;;;;;;;;;;;;;;;;;;2201018;59;1952;-20
2024/01/18 12:19:28;;;;;;;;;;;;;;;;;;2204897;59;1910;-20
2024/01/18 12:22:00;;;;;;;;;;;;;;;;;;2208122;67;1913;-20
2024/01/18 12:24:31;;;;;;;;;;;;;;;;;;2206729;67;2007;-20
2024/01/18 12:27:04;;;;;;;;;;;;;;;;;;2205991;59;2149;-20
2024/01/18 12:29:39;;;;;;;;;;;;;;;;;;2204268;59;2295;-20
2024/01/18 12:32:10;;;;;;;;;;;;;;;;;;2207810;67;2579;-20
2024/01/18 12:34:40;;;;;;;;;;;;;;;;;;2204285;67;2602;-20
2024/01/18 12:37:11;;;;;;;;;;;;;;;;;;2206280;67;2864;-22
2024/01/18 12:39:41;;;;;;;;;;;;;;;;;;2203781;59;2303;-22
2024/01/18 12:42:12;;;;;;;;;;;;;;;;;;2198808;67;2004;-22
2024/01/18 12:44:42;;;;;;;;;;;;;;;;;;2208305;67;1973;-22
2024/01/18 12:47:12;;;;;;;;;;;;;;;;;;2205361;59;2726;-22
2024/01/18 12:49:42;;;;;;;;;;;;;;;;;;2208859;59;1805;-22
2024/01/18 12:52:13;;;;;;;;;;;;;;;;;;2205090;67;2105;-22
2024/01/18 12:54:44;;;;;;;;;;;;;;;;;;2208235;59;2597;-22
2024/01/18 12:57:15;;;;;;;;;;;;;;;;;;2208860;67;1843;-22
2024/01/18 12:59:49;;;;;;;;;;;;;;;;;;2206895;67;1748;-22
2024/01/18 13:02:23;;;;;;;;;;;;;;;;;;2207832;67;1763;-22
2024/01/18 13:04:56;;;;;;;;;;;;;;;;;;2207920;59;2021;-22
2024/01/18 13:07:26;;;;;;;;;;;;;;;;;;2207376;59;1985;-22
2024/01/18 13:09:57;;;;;;;;;;;;;;;;;;2204552;59;1845;-22
2024/01/18 13:12:29;;;;;;;;;;;;;;;;;;2203752;67;2046;-22
2024/01/18 13:14:59;;;;;;;;;;;;;;;;;;2208502;67;1760;-21
2024/01/18 13:17:29;;;;;;;;;;;;;;;;;;2203287;59;2008;-22
2024/01/18 13:20:00;;;;;;;;;;;;;;;;;;2204521;67;1945;-22
2024/01/18 13:22:30;;;;;;;;;;;;;;;;;;2204028;60;2100;-21
2024/01/18 13:25:01;;;;;;;;;;;;;;;;;;2205129;67;1941;-21
2024/01/18 13:27:31;;;;;;;;;;;;;;;;;;2207411;59;2125;-22
2024/01/18 13:30:01;;;;;;;;;;;;;;;;;;2208594;59;2061;-22
2024/01/18 13:32:31;;;;;;;;;;;;;;;;;;2207307;62;1930;-21
2024/01/18 13:35:02;;;;;;;;;;;;;;;;;;2208904;59;1903;-21
2024/01/18 13:37:32;;;;;;;;;;;;;;;;;;2207419;59;1849;-21
2024/01/18 13:40:05;;;;;;;;;;;;;;;;;;2205504;67;1928;-21
2024/01/18 13:42:36;;;;;;;;;;;;;;;;;;2207388;67;2033;-19
2024/01/18 13:45:06;;;;;;;;;;;;;;;;;;2207712;67;2014;-19
2024/01/18 13:47:36;;;;;;;;;;;;;;;;;;2207528;67;2200;-19
2024/01/18 13:50:07;;;;;;;;;;;;;;;;;;2205084;59;1812;-20
2024/01/18 13:52:37;;;;;;;;;;;;;;;;;;2207065;59;2145;-20
2024/01/18 13:55:08;;;;;;;;;;;;;;;;;;2208293;60;1790;-19
2024/01/18 13:57:39;;;;;;;;;;;;;;;;;;2207836;67;1667;-19
2024/01/18 14:00:11;;;;;;;;;;;;;;;;;;2205367;67;2189;-19
2024/01/18 14:02:41;;;;;;;;;;;;;;;;;;2207193;67;1991;-19
2024/01/18 14:05:11;;;;;;;;;;;;;;;;;;2202919;59;2163;-19
2024/01/18 14:07:42;;;;;;;;;;;;;;;;;;2205879;59;2166;-19
2024/01/18 14:10:14;;;;;;;;;;;;;;;;;;2207379;59;1866;-20
2024/01/18 14:12:44;;;;;;;;;;;;;;;;;;2205949;67;1909;-19
2024/01/18 14:15:14;;;;;;;;;;;;;;;;;;2206212;59;2243;-19
2024/01/18 14:17:44;;;;;;;;;;;;;;;;;;2205555;59;2054;-19
2024/01/18 14:20:15;;;;;;;;;;;;;;;;;;2206257;67;2061;-19
2024/01/18 14:22:45;;;;;;;;;;;;;;;;;;2206594;67;1919;-19
2024/01/18 14:25:15;;;;;;;;;;;;;;;;;;2206082;67;1859;-19
2024/01/18 14:27:45;;;;;;;;;;;;;;;;;;2205563;59;2209;-20
2024/01/18 14:30:16;;;;;;;;;;;;;;;;;;2203749;59;1953;-20
2024/01/18 14:32:46;;;;;;;;;;;;;;;;;;2206394;59;3222;-20
2024/01/18 14:35:16;;;;;;;;;;;;;;;;;;2207487;59;2221;-20
2024/01/18 14:37:47;;;;;;;;;;;;;;;;;;2207001;59;3252;-20
2024/01/18 14:40:19;;;;;;;;;;;;;;;;;;2204915;67;1978;-20
2024/01/18 14:42:49;;;;;;;;;;;;;;;;;;2206762;59;1871;-20
2024/01/18 14:45:20;;;;;;;;;;;;;;;;;;2207801;67;1796;-21
2024/01/18 14:47:51;;;;;;;;;;;;;;;;;;2204137;59;1935;-21
2024/01/18 14:50:21;;;;;;;;;;;;;;;;;;2206381;59;2363;-21
2024/01/18 14:52:51;;;;;;;;;;;;;;;;;;2202176;67;3027;-20
2024/01/18 14:55:22;;;;;;;;;;;;;;;;;;2207029;67;2419;-21
2024/01/18 14:57:56;;;;;;;;;;;;;;;;;;2206802;67;2382;-21
2024/01/18 15:00:27;;;;;;;;;;;;;;;;;;2207850;67;2489;-21
2024/01/18 15:02:57;;;;;;;;;;;;;;;;;;2206217;67;1959;-21
2024/01/18 15:05:27;;;;;;;;;;;;;;;;;;2207096;59;1945;-22
2024/01/18 15:07:58;;;;;;;;;;;;;;;;;;2203710;59;2661;-21
2024/01/18 15:10:29;;;;;;;;;;;;;;;;;;2201321;59;2064;-20
2024/01/18 15:12:59;;;;;;;;;;;;;;;;;;2206538;59;1940;-32
2024/01/18 15:15:32;;;;;;;;;;;;;;;;;;2207573;59;2430;-21
2024/01/18 15:18:02;;;;;;;;;;;;;;;;;;2206699;59;2654;-21
2024/01/18 15:20:32;;;;;;;;;;;;;;;;;;2206785;66;2035;-20
2024/01/18 15:23:03;;;;;;;;;;;;;;;;;;2205837;67;2337;-20
2024/01/18 15:25:33;;;;;;;;;;;;;;;;;;2205328;67;2357;-21
2024/01/18 15:28:04;;;;;;;;;;;;;;;;;;2205814;59;2614;-20
2024/01/18 15:30:34;;;;;;;;;;;;;;;;;;2202631;67;2018;-20
2024/01/18 15:33:04;;;;;;;;;;;;;;;;;;2205145;67;2134;-20
2024/01/18 15:35:35;;;;;;;;;;;;;;;;;;2202121;59;2877;-20
2024/01/18 15:38:05;;;;;;;;;;;;;;;;;;2202170;67;1974;-20
2024/01/18 15:40:35;;;;;;;;;;;;;;;;;;2205438;67;2120;-20
2024/01/18 15:43:06;;;;;;;;;;;;;;;;;;2202768;59;1910;-20
2024/01/18 15:45:36;;;;;;;;;;;;;;;;;;2199755;67;2181;-20
2024/01/18 15:48:07;;;;;;;;;;;;;;;;;;2202367;59;2588;-20
2024/01/18 15:50:37;;;;;;;;;;;;;;;;;;2200087;59;2252;-20
2024/01/18 15:53:08;;;;;;;;;;;;;;;;;;2202116;67;2598;-20
2024/01/18 15:55:38;;;;;;;;;;;;;;;;;;2205162;59;2424;-20
2024/01/18 15:58:08;;;;;;;;;;;;;;;;;;2204895;62;2611;-20
2024/01/18 16:00:39;;;;;;;;;;;;;;;;;;2203169;59;2796;-20
2024/01/18 16:03:10;;;;;;;;;;;;;;;;;;2203025;67;2036;-20
2024/01/18 16:05:40;;;;;;;;;;;;;;;;;;2202138;59;1897;-20
2024/01/18 16:08:10;;;;;;;;;;;;;;;;;;2206751;59;2139;-20
2024/01/18 16:10:40;;;;;;;;;;;;;;;;;;2205273;59;2313;-20
2024/01/18 16:13:11;;;;;;;;;;;;;;;;;;2206901;59;2478;-20
2024/01/18 16:15:41;;;;;;;;;;;;;;;;;;2205026;59;1884;-20
2024/01/18 16:18:11;;;;;;;;;;;;;;;;;;2202981;59;1966;-20
2024/01/18 16:20:42;;;;;;;;;;;;;;;;;;2205116;59;2231;-19
2024/01/18 16:23:12;;;;;;;;;;;;;;;;;;2205582;66;1915;-20
2024/01/18 16:25:44;;;;;;;;;;;;;;;;;;2201028;59;1851;-20
2024/01/18 16:28:17;;;;;;;;;;;;;;;;;;2205287;59;2411;-19
2024/01/18 16:30:47;;;;;;;;;;;;;;;;;;2206075;67;1795;-19
2024/01/18 16:33:18;;;;;;;;;;;;;;;;;;2206402;59;2298;-19
2024/01/18 16:35:48;;;;;;;;;;;;;;;;;;2202373;59;2306;-19
2024/01/18 16:38:18;;;;;;;;;;;;;;;;;;2203607;59;1795;-20
2024/01/18 16:40:49;;;;;;;;;;;;;;;;;;2203588;59;2613;-19
2024/01/18 16:43:19;;;;;;;;;;;;;;;;;;2202610;59;3203;-19
2024/01/18 16:45:49;;;;;;;;;;;;;;;;;;2204466;59;3218;-19
2024/01/18 16:48:19;;;;;;;;;;;;;;;;;;2207011;59;2316;-19
2024/01/18 16:50:50;;;;;;;;;;;;;;;;;;2197589;59;1836;-19
2024/01/18 16:53:20;;;;;;;;;;;;;;;;;;2207659;67;2008;-19
2024/01/18 16:55:50;;;;;;;;;;;;;;;;;;2202587;59;2091;-19
2024/01/18 16:58:21;;;;;;;;;;;;;;;;;;2207471;59;1722;-20
2024/01/18 17:00:51;;;;;;;;;;;;;;;;;;2202337;59;1785;-22
2024/01/18 17:03:21;;;;;;;;;;;;;;;;;;2203806;59;2032;-23
2024/01/18 17:05:52;;;;;;;;;;;;;;;;;;2203474;59;1810;-22
2024/01/18 17:08:22;;;;;;;;;;;;;;;;;;2207320;59;1817;-23
2024/01/18 17:10:52;;;;;;;;;;;;;;;;;;2199415;59;2005;-22
2024/01/18 17:13:22;;;;;;;;;;;;;;;;;;2203399;59;2006;-22
2024/01/18 17:15:53;;;;;;;;;;;;;;;;;;2202067;59;2660;-23
2024/01/18 17:18:24;;;;;;;;;;;;;;;;;;2207891;59;1809;-23
2024/01/18 17:20:54;;;;;;;;;;;;;;;;;;2204453;59;1990;-23
2024/01/18 17:23:24;;;;;;;;;;;;;;;;;;2202526;67;1894;-23
2024/01/18 17:25:55;;;;;;;;;;;;;;;;;;2203443;59;1892;-24
2024/01/18 17:28:25;;;;;;;;;;;;;;;;;;2207388;59;2149;-24